Time;durP1;ratioP1;P1;durP2;ratioP2;P2;SDS_P1;SDS_P2;PMS_P1;PMS_P2;Temp;Humidity;BMP_temperature;BMP_pressure;BME280_temperature;BME280_humidity;BME280_pressure;Samples;Min_cycle;Max_cycle;Signal;HPM_P1;HPM_P2
2022/07/07 00:01:32;;;;;;;;;;;;;;;-147.11;100.00;61570.13;5035392;28;19920;-61
2022/07/07 00:03:57;;;;;;;;;;;;;;;-147.11;100.00;61570.13;5048823;28;19933;-59
2022/07/07 00:06:23;;;;;;;;;;;;;;;-147.11;100.00;61570.13;5048913;28;20365;-59
2022/07/07 00:08:48;;;;;;;;;;;;;;;-147.11;100.00;61570.13;5045718;28;19913;-62
2022/07/07 00:11:14;;;;;;;;;;;;;;;-147.11;100.00;61570.13;5044046;28;19924;-61
2022/07/07 00:13:40;;;;;;;;;;;;;;;-147.11;100.00;61570.13;5050446;28;19919;-63
2022/07/07 00:16:05;;;;;;;;;;;;;;;-147.11;100.00;61570.13;5045293;28;19916;-63
2022/07/07 00:18:30;;;;;;;;;;;;;;;-147.11;100.00;61570.13;5036141;28;19921;-61
2022/07/07 00:20:56;;;;;;;;;;;;;;;-147.11;100.00;61570.13;5035133;28;19916;-61
2022/07/07 00:23:21;;;;;;;;;;;;;;;-147.11;100.00;61570.13;5045839;28;20974;-62
2022/07/07 00:25:46;;;;;;;;;;;;;;;-147.11;100.00;61570.13;5043446;28;20035;-62
2022/07/07 00:28:12;;;;;;;;;;;;;;;-147.11;100.00;61570.13;5052717;28;19920;-62
2022/07/07 00:30:37;;;;;;;;;;;;;;;-147.11;100.00;61570.13;5046172;28;19942;-61
2022/07/07 00:33:03;;;;;;;;;;;;;;;-147.11;100.00;61570.13;5048965;28;19950;-62
2022/07/07 00:35:28;;;;;;;;;;;;;;;-147.11;100.00;61570.13;5034119;28;19920;-61
2022/07/07 00:37:53;;;;;;;;;;;;;;;-147.11;100.00;61570.13;5043243;28;19958;-61
2022/07/07 00:40:19;;;;;;;;;;;;;;;-147.11;100.00;61570.13;5036813;28;20029;-61
2022/07/07 00:42:44;;;;;;;;;;;;;;;-147.11;100.00;61570.13;5033701;28;19929;-60
2022/07/07 00:45:09;;;;;;;;;;;;;;;-147.11;100.00;61570.13;5037404;28;19916;-59
2022/07/07 00:47:35;;;;;;;;;;;;;;;-147.11;100.00;61570.13;5048437;28;19973;-60
2022/07/07 00:50:00;;;;;;;;;;;;;;;-147.11;100.00;61570.13;5046639;28;20026;-59
2022/07/07 00:52:26;;;;;;;;;;;;;;;-147.11;100.00;61570.13;5041858;28;20058;-62
2022/07/07 00:54:52;;;;;;;;;;;;;;;-147.11;100.00;61570.13;5041752;28;19951;-62
2022/07/07 00:57:18;;;;;;;;;;;;;;;-147.11;100.00;61570.13;5042260;28;20380;-62
2022/07/07 00:59:43;;;;;;;;;;;;;;;-147.11;100.00;61570.13;5051567;28;19923;-61
2022/07/07 01:02:08;;;;;;;;;;;;;;;-147.11;100.00;61570.13;5031502;28;19936;-63
2022/07/07 01:04:34;;;;;;;;;;;;;;;-147.11;100.00;61570.13;5043600;28;19913;-62
2022/07/07 01:07:00;;;;;;;;;;;;;;;-147.11;100.00;61570.13;5048249;28;19920;-62
2022/07/07 01:09:26;;;;;;;;;;;;;;;-147.11;100.00;61570.13;5049375;28;19946;-63
2022/07/07 01:11:53;;;;;;;;;;;;;;;-147.11;100.00;61570.13;5045993;28;19916;-60
2022/07/07 01:14:19;;;;;;;;;;;;;;;-147.11;100.00;61570.13;5043409;28;19920;-60
2022/07/07 01:16:45;;;;;;;;;;;;;;;-147.11;100.00;61570.13;5047013;28;19927;-59
2022/07/07 01:19:10;;;;;;;;;;;;;;;-147.11;100.00;61570.13;5042940;28;21967;-61
2022/07/07 01:22:00;;;;;;;;;;;;;;;-147.11;100.00;61570.13;5048062;28;19967;-59
2022/07/07 01:24:26;;;;;;;;;;;;;;;-147.11;100.00;61570.13;5036250;22;19928;-58
2022/07/07 01:27:07;;;;;;;;;;;;;;;-147.11;100.00;61570.13;5022393;28;19940;-59
2022/07/07 01:29:39;;;;;;;;;;;;;;;-147.11;100.00;61570.13;5019843;28;19996;-60
2022/07/07 01:32:05;;;;;;;;;;;;;;;-147.11;100.00;61570.13;5019803;28;20355;-56
2022/07/07 01:34:31;;;;;;;;;;;;;;;-147.11;100.00;61570.13;5015689;28;20007;-60
2022/07/07 01:36:56;;;;;;;;;;;;;;;-147.11;100.00;61570.13;5023100;28;20400;-62
2022/07/07 01:39:21;;;;;;;;;;;;;;;-147.11;100.00;61570.13;5026548;28;20284;-59
2022/07/07 01:41:46;;;;;;;;;;;;;;;-147.11;100.00;61570.13;5018503;28;20376;-59
2022/07/07 01:44:12;;;;;;;;;;;;;;;-147.11;100.00;61570.13;5030705;28;19921;-58
2022/07/07 01:46:37;;;;;;;;;;;;;;;-147.11;100.00;61570.13;5024509;28;19909;-59
2022/07/07 01:49:02;;;;;;;;;;;;;;;-147.11;100.00;61570.13;5024720;28;19924;-57
2022/07/07 01:51:28;;;;;;;;;;;;;;;-147.11;100.00;61570.13;5023645;28;19921;-59
2022/07/07 01:53:53;;;;;;;;;;;;;;;-147.11;100.00;61570.13;5025500;28;20012;-59
2022/07/07 01:56:18;;;;;;;;;;;;;;;-147.11;100.00;61570.13;5019603;28;19948;-61
2022/07/07 01:58:44;;;;;;;;;;;;;;;-147.11;100.00;61570.13;5024098;28;19924;-60
2022/07/07 02:01:09;;;;;;;;;;;;;;;-147.11;100.00;61570.13;5022533;28;19920;-56
2022/07/07 02:03:34;;;;;;;;;;;;;;;-147.11;100.00;61570.13;5024340;28;19921;-60
2022/07/07 02:06:00;;;;;;;;;;;;;;;-147.11;100.00;61570.13;5006614;28;19924;-58
2022/07/07 02:08:25;;;;;;;;;;;;;;;-147.11;100.00;61570.13;5021270;28;19928;-62
2022/07/07 02:13:34;;;;;;;;;;;;;;;-147.11;100.00;61570.13;5021039;28;19924;-61
2022/07/07 02:15:59;;;;;;;;;;;;;;;-147.11;100.00;61570.13;5017640;28;19913;-56
2022/07/07 02:18:25;;;;;;;;;;;;;;;-147.11;100.00;61570.13;5022435;28;19944;-58
2022/07/07 02:20:50;;;;;;;;;;;;;;;-147.11;100.00;61570.13;5021713;28;19921;-58
2022/07/07 02:23:15;;;;;;;;;;;;;;;-147.11;100.00;61570.13;5024589;28;19921;-61
2022/07/07 02:25:41;;;;;;;;;;;;;;;-147.11;100.00;61570.13;5025834;28;19980;-57
2022/07/07 02:28:06;;;;;;;;;;;;;;;-147.11;100.00;61570.13;5022999;28;19924;-57
2022/07/07 02:30:31;;;;;;;;;;;;;;;-147.11;100.00;61570.13;5026789;28;19924;-58
2022/07/07 02:32:57;;;;;;;;;;;;;;;-147.11;100.00;61570.13;5027375;28;20345;-56
2022/07/07 02:35:22;;;;;;;;;;;;;;;-147.11;100.00;61570.13;5026293;28;19917;-57
2022/07/07 02:37:47;;;;;;;;;;;;;;;-147.11;100.00;61570.13;5028423;28;19917;-57
2022/07/07 02:40:13;;;;;;;;;;;;;;;-147.11;100.00;61570.13;5021035;28;19956;-56
2022/07/07 02:42:38;;;;;;;;;;;;;;;-147.11;100.00;61570.13;5001989;28;20151;-57
2022/07/07 02:45:03;;;;;;;;;;;;;;;-147.11;100.00;61570.13;5021261;28;20338;-54
2022/07/07 02:47:29;;;;;;;;;;;;;;;-147.11;100.00;61570.13;5026312;28;20015;-52
2022/07/07 02:49:54;;;;;;;;;;;;;;;-147.11;100.00;61570.13;5022218;28;20339;-52
2022/07/07 02:52:19;;;;;;;;;;;;;;;-147.11;100.00;61570.13;5006419;28;19960;-62
2022/07/07 02:54:45;;;;;;;;;;;;;;;-147.11;100.00;61570.13;5020120;28;19925;-56
2022/07/07 02:57:10;;;;;;;;;;;;;;;-147.11;100.00;61570.13;5024565;28;19925;-55
2022/07/07 02:59:36;;;;;;;;;;;;;;;-147.11;100.00;61570.13;5025717;28;20028;-55
2022/07/07 03:02:02;;;;;;;;;;;;;;;-147.11;100.00;61570.13;5023315;28;19921;-52
2022/07/07 03:04:27;;;;;;;;;;;;;;;-147.11;100.00;61570.13;5023412;28;19921;-53
2022/07/07 03:06:52;;;;;;;;;;;;;;;-147.11;100.00;61570.13;5025586;28;20498;-53
2022/07/07 03:09:18;;;;;;;;;;;;;;;-147.11;100.00;61570.13;5023663;28;20000;-59
2022/07/07 03:11:43;;;;;;;;;;;;;;;-147.11;100.00;61570.13;5019541;28;19917;-60
2022/07/07 03:14:08;;;;;;;;;;;;;;;-147.11;100.00;61570.13;5021557;28;19917;-56
2022/07/07 03:16:34;;;;;;;;;;;;;;;-147.11;100.00;61570.13;5024991;28;20023;-53
2022/07/07 03:18:59;;;;;;;;;;;;;;;-147.11;100.00;61570.13;5026968;28;19921;-53
2022/07/07 03:21:24;;;;;;;;;;;;;;;-147.11;100.00;61570.13;5028864;28;19952;-58
2022/07/07 03:23:50;;;;;;;;;;;;;;;-147.11;100.00;61570.13;5028072;28;20380;-54
2022/07/07 03:26:15;;;;;;;;;;;;;;;-147.11;100.00;61570.13;5030196;28;19929;-60
2022/07/07 03:28:40;;;;;;;;;;;;;;;-147.11;100.00;61570.13;5030581;28;19975;-53
2022/07/07 03:31:05;;;;;;;;;;;;;;;-147.11;100.00;61570.13;5027424;28;19940;-52
2022/07/07 03:33:31;;;;;;;;;;;;;;;-147.11;100.00;61570.13;5026995;28;19913;-59
2022/07/07 03:35:56;;;;;;;;;;;;;;;-147.11;100.00;61570.13;5014015;28;20510;-52
2022/07/07 03:38:21;;;;;;;;;;;;;;;-147.11;100.00;61570.13;5026391;28;19952;-59
2022/07/07 03:40:47;;;;;;;;;;;;;;;-147.11;100.00;61570.13;5027528;28;19971;-54
2022/07/07 03:43:12;;;;;;;;;;;;;;;-147.11;100.00;61570.13;5023569;28;19929;-54
2022/07/07 03:45:37;;;;;;;;;;;;;;;-147.11;100.00;61570.13;5029781;28;19967;-56
2022/07/07 03:48:03;;;;;;;;;;;;;;;-147.11;100.00;61570.13;5028177;28;19917;-52
2022/07/07 03:50:28;;;;;;;;;;;;;;;-147.11;100.00;61570.13;5010420;28;19924;-52
2022/07/07 03:52:53;;;;;;;;;;;;;;;-147.11;100.00;61570.13;5028606;28;20402;-56
2022/07/07 03:55:19;;;;;;;;;;;;;;;-147.11;100.00;61570.13;5026717;28;19917;-53
2022/07/07 03:57:44;;;;;;;;;;;;;;;-147.11;100.00;61570.13;5025685;28;19917;-58
2022/07/07 04:00:10;;;;;;;;;;;;;;;-147.11;100.00;61570.13;5027856;28;19921;-60
2022/07/07 04:02:35;;;;;;;;;;;;;;;-147.11;100.00;61570.13;5024517;28;19921;-59
2022/07/07 04:05:00;;;;;;;;;;;;;;;-147.11;100.00;61570.13;5027305;28;19971;-61
2022/07/07 04:07:26;;;;;;;;;;;;;;;-147.11;100.00;61570.13;5031954;28;19909;-58
2022/07/07 04:09:51;;;;;;;;;;;;;;;-147.11;100.00;61570.13;5021315;28;19925;-58
2022/07/07 04:12:16;;;;;;;;;;;;;;;-147.11;100.00;61570.13;5025159;28;19917;-57
2022/07/07 04:14:42;;;;;;;;;;;;;;;-147.11;100.00;61570.13;5012655;28;19917;-60
2022/07/07 04:17:07;;;;;;;;;;;;;;;-147.11;100.00;61570.13;5028786;28;19971;-61
2022/07/07 04:19:32;;;;;;;;;;;;;;;-147.11;100.00;61570.13;5030482;28;19923;-57
2022/07/07 04:21:58;;;;;;;;;;;;;;;-147.11;100.00;61570.13;5025585;28;19909;-58
2022/07/07 04:24:23;;;;;;;;;;;;;;;-147.11;100.00;61570.13;5026493;28;19948;-60
2022/07/07 04:26:48;;;;;;;;;;;;;;;-147.11;100.00;61570.13;5027288;28;21913;-60
2022/07/07 04:29:14;;;;;;;;;;;;;;;-147.11;100.00;61570.13;5028005;28;19992;-59
2022/07/07 04:31:44;;;;;;;;;;;;;;;-147.11;100.00;61570.13;5025163;28;19962;-58
2022/07/07 04:34:09;;;;;;;;;;;;;;;-147.11;100.00;61570.13;5027103;28;19927;-60
2022/07/07 04:36:35;;;;;;;;;;;;;;;-147.11;100.00;61570.13;5026931;28;20015;-58
2022/07/07 04:39:00;;;;;;;;;;;;;;;-147.11;100.00;61570.13;5029211;28;20375;-57
2022/07/07 04:41:25;;;;;;;;;;;;;;;-147.11;100.00;61570.13;5028295;28;19921;-57
2022/07/07 04:43:51;;;;;;;;;;;;;;;-147.11;100.00;61570.13;5029395;28;19964;-56
2022/07/07 04:46:16;;;;;;;;;;;;;;;-147.11;100.00;61570.13;5026473;28;19917;-57
2022/07/07 04:48:41;;;;;;;;;;;;;;;-147.11;100.00;61570.13;5020507;28;20343;-57
2022/07/07 04:51:07;;;;;;;;;;;;;;;-147.11;100.00;61570.13;5031656;28;19920;-56
2022/07/07 04:53:32;;;;;;;;;;;;;;;-147.11;100.00;61570.13;5022406;28;19928;-61
2022/07/07 04:55:57;;;;;;;;;;;;;;;-147.11;100.00;61570.13;5027127;28;19916;-56
2022/07/07 04:58:23;;;;;;;;;;;;;;;-147.11;100.00;61570.13;5025326;28;20071;-59
2022/07/07 05:00:48;;;;;;;;;;;;;;;-147.11;100.00;61570.13;5027272;28;19953;-56
2022/07/07 05:03:13;;;;;;;;;;;;;;;-147.11;100.00;61570.13;5022487;28;19921;-61
2022/07/07 05:05:38;;;;;;;;;;;;;;;-147.11;100.00;61570.13;5024907;28;20572;-56
2022/07/07 05:08:04;;;;;;;;;;;;;;;-147.11;100.00;61570.13;5026228;28;20433;-57
2022/07/07 05:10:30;;;;;;;;;;;;;;;-147.11;100.00;61570.13;5023816;28;19917;-58
2022/07/07 05:12:56;;;;;;;;;;;;;;;-147.11;100.00;61570.13;5026949;28;19925;-57
2022/07/07 05:15:21;;;;;;;;;;;;;;;-147.11;100.00;61570.13;5030309;28;19951;-57
2022/07/07 05:17:46;;;;;;;;;;;;;;;-147.11;100.00;61570.13;5022964;28;19917;-58
2022/07/07 05:20:12;;;;;;;;;;;;;;;-147.11;100.00;61570.13;5025747;28;20008;-59
2022/07/07 05:22:37;;;;;;;;;;;;;;;-147.11;100.00;61570.13;5027838;28;19924;-57
2022/07/07 05:25:02;;;;;;;;;;;;;;;-147.11;100.00;61570.13;5022691;28;19921;-58
2022/07/07 05:27:28;;;;;;;;;;;;;;;-147.11;100.00;61570.13;5031234;28;20291;-58
2022/07/07 05:29:53;;;;;;;;;;;;;;;-147.11;100.00;61570.13;5023779;28;19991;-57
2022/07/07 05:32:18;;;;;;;;;;;;;;;-147.11;100.00;61570.13;5014983;28;20407;-60
2022/07/07 05:34:44;;;;;;;;;;;;;;;-147.11;100.00;61570.13;5016222;28;19960;-54
2022/07/07 05:37:09;;;;;;;;;;;;;;;-147.11;100.00;61570.13;5021761;28;20368;-56
2022/07/07 05:39:34;;;;;;;;;;;;;;;-147.11;100.00;61570.13;5023207;28;19974;-54
2022/07/07 05:42:00;;;;;;;;;;;;;;;-147.11;100.00;61570.13;5022085;28;19963;-56
2022/07/07 05:44:25;;;;;;;;;;;;;;;-147.11;100.00;61570.13;5022640;28;20384;-57
2022/07/07 05:46:50;;;;;;;;;;;;;;;-147.11;100.00;61570.13;5021551;28;19928;-57
2022/07/07 05:49:16;;;;;;;;;;;;;;;-147.11;100.00;61570.13;5022498;28;19912;-56
2022/07/07 05:51:41;;;;;;;;;;;;;;;-147.11;100.00;61570.13;5025915;28;19928;-57
2022/07/07 05:54:07;;;;;;;;;;;;;;;-147.11;100.00;61570.13;5026898;28;20443;-56
2022/07/07 05:56:32;;;;;;;;;;;;;;;-147.11;100.00;61570.13;5021402;28;19924;-57
2022/07/07 05:58:57;;;;;;;;;;;;;;;-147.11;100.00;61570.13;5004207;28;19921;-56
2022/07/07 06:01:22;;;;;;;;;;;;;;;-147.11;100.00;61570.13;5008465;28;19916;-58
2022/07/07 06:03:48;;;;;;;;;;;;;;;-147.11;100.00;61570.13;5024758;28;19917;-57
2022/07/07 06:06:13;;;;;;;;;;;;;;;-147.11;100.00;61570.13;5025726;28;19914;-55
2022/07/07 06:08:38;;;;;;;;;;;;;;;-147.11;100.00;61570.13;5009846;28;19975;-54
2022/07/07 06:11:04;;;;;;;;;;;;;;;-147.11;100.00;61570.13;5029971;28;19964;-56
2022/07/07 06:13:29;;;;;;;;;;;;;;;-147.11;100.00;61570.13;5031281;28;19916;-54
2022/07/07 06:15:56;;;;;;;;;;;;;;;-147.11;100.00;61570.13;5027780;28;19915;-54
2022/07/07 06:18:22;;;;;;;;;;;;;;;-147.11;100.00;61570.13;5026896;28;19951;-54
2022/07/07 06:20:47;;;;;;;;;;;;;;;-147.11;100.00;61570.13;5027507;28;19952;-53
2022/07/07 06:23:12;;;;;;;;;;;;;;;-147.11;100.00;61570.13;5025351;28;19956;-57
2022/07/07 06:25:38;;;;;;;;;;;;;;;-147.11;100.00;61570.13;5029097;28;19920;-53
2022/07/07 06:28:03;;;;;;;;;;;;;;;-147.11;100.00;61570.13;5026711;28;20012;-55
2022/07/07 06:30:28;;;;;;;;;;;;;;;-147.11;100.00;61570.13;5022277;28;19920;-58
2022/07/07 06:32:54;;;;;;;;;;;;;;;-147.11;100.00;61570.13;5025006;28;19935;-57
2022/07/07 06:35:20;;;;;;;;;;;;;;;-147.11;100.00;61570.13;5008074;28;19917;-56
2022/07/07 06:37:46;;;;;;;;;;;;;;;-147.11;100.00;61570.13;5019820;28;19962;-54
2022/07/07 06:40:11;;;;;;;;;;;;;;;-147.11;100.00;61570.13;5019400;28;19921;-56
2022/07/07 06:42:37;;;;;;;;;;;;;;;-147.11;100.00;61570.13;5022385;28;19970;-56
2022/07/07 06:45:03;;;;;;;;;;;;;;;-147.11;100.00;61570.13;5027891;28;19916;-54
2022/07/07 06:47:28;;;;;;;;;;;;;;;-147.11;100.00;61570.13;5024225;28;19917;-57
2022/07/07 06:49:54;;;;;;;;;;;;;;;-147.11;100.00;61570.13;5019696;28;19925;-57
2022/07/07 06:52:19;;;;;;;;;;;;;;;-147.11;100.00;61570.13;5022312;28;20007;-57
2022/07/07 06:54:45;;;;;;;;;;;;;;;-147.11;100.00;61570.13;5026778;28;19925;-60
2022/07/07 06:57:10;;;;;;;;;;;;;;;-147.11;100.00;61570.13;5025413;28;19925;-58
2022/07/07 06:59:35;;;;;;;;;;;;;;;-147.11;100.00;61570.13;5031002;28;19917;-56
2022/07/07 07:02:01;;;;;;;;;;;;;;;-147.11;100.00;61570.13;5028181;28;19924;-58
2022/07/07 07:04:26;;;;;;;;;;;;;;;-147.11;100.00;61570.13;5028411;28;20332;-52
2022/07/07 07:06:51;;;;;;;;;;;;;;;-147.11;100.00;61570.13;5021716;28;19917;-58
2022/07/07 07:09:17;;;;;;;;;;;;;;;-147.11;100.00;61570.13;5025581;28;20616;-58
2022/07/07 07:11:42;;;;;;;;;;;;;;;-147.11;100.00;61570.13;5026016;28;19921;-55
2022/07/07 07:14:07;;;;;;;;;;;;;;;-147.11;100.00;61570.13;5026076;28;19913;-58
2022/07/07 07:16:33;;;;;;;;;;;;;;;-147.11;100.00;61570.13;5028002;28;19917;-57
2022/07/07 07:18:58;;;;;;;;;;;;;;;-147.11;100.00;61570.13;5023164;28;19980;-59
2022/07/07 07:21:23;;;;;;;;;;;;;;;-147.11;100.00;61570.13;5028942;28;19948;-58
2022/07/07 07:23:49;;;;;;;;;;;;;;;-147.11;100.00;61570.13;5030131;28;20380;-58
2022/07/07 07:26:14;;;;;;;;;;;;;;;-147.11;100.00;61570.13;5030470;28;19956;-54
2022/07/07 07:28:39;;;;;;;;;;;;;;;-147.11;100.00;61570.13;5027280;28;19921;-59
2022/07/07 07:31:05;;;;;;;;;;;;;;;-147.11;100.00;61570.13;5029605;28;20425;-59
2022/07/07 07:33:31;;;;;;;;;;;;;;;-147.11;100.00;61570.13;5029734;28;19917;-58
2022/07/07 07:35:56;;;;;;;;;;;;;;;-147.11;100.00;61570.13;5034602;22;19925;-53
2022/07/07 07:38:21;;;;;;;;;;;;;;;-147.11;100.00;61570.13;5017233;28;20358;-52
2022/07/07 07:40:47;;;;;;;;;;;;;;;-147.11;100.00;61570.13;5008373;28;19925;-52
2022/07/07 07:43:12;;;;;;;;;;;;;;;-147.11;100.00;61570.13;5019091;28;19921;-54
2022/07/07 07:45:38;;;;;;;;;;;;;;;-147.11;100.00;61570.13;5014253;28;19921;-51
2022/07/07 07:48:04;;;;;;;;;;;;;;;-147.11;100.00;61570.13;5000526;28;19940;-52
2022/07/07 07:50:30;;;;;;;;;;;;;;;-147.11;100.00;61570.13;5008446;28;19928;-52
2022/07/07 07:52:55;;;;;;;;;;;;;;;-147.11;100.00;61570.13;5012047;28;20017;-52
2022/07/07 07:55:21;;;;;;;;;;;;;;;-147.11;100.00;61570.13;5013467;28;20012;-52
2022/07/07 07:57:47;;;;;;;;;;;;;;;-147.11;100.00;61570.13;5006408;28;19917;-52
2022/07/07 08:00:14;;;;;;;;;;;;;;;-147.11;100.00;61570.13;5007656;28;19919;-53
2022/07/07 08:02:39;;;;;;;;;;;;;;;-147.11;100.00;61570.13;5009186;28;19925;-56
2022/07/07 08:05:05;;;;;;;;;;;;;;;-147.11;100.00;61570.13;5010228;28;20012;-54
2022/07/07 08:07:32;;;;;;;;;;;;;;;-147.11;100.00;61570.13;5011211;28;19971;-55
2022/07/07 08:09:58;;;;;;;;;;;;;;;-147.11;100.00;61570.13;4997490;28;20304;-56
2022/07/07 08:12:23;;;;;;;;;;;;;;;-147.11;100.00;61570.13;5008560;28;19920;-56
2022/07/07 08:14:49;;;;;;;;;;;;;;;-147.11;100.00;61570.13;5015178;28;19966;-55
2022/07/07 08:17:14;;;;;;;;;;;;;;;-147.11;100.00;61570.13;5015743;28;19979;-55
2022/07/07 08:19:39;;;;;;;;;;;;;;;-147.11;100.00;61570.13;5006921;28;20711;-56
2022/07/07 08:22:05;;;;;;;;;;;;;;;-147.11;100.00;61570.13;5012605;28;19953;-55
2022/07/07 08:24:30;;;;;;;;;;;;;;;-147.11;100.00;61570.13;5010796;28;19968;-55
2022/07/07 08:26:55;;;;;;;;;;;;;;;-147.11;100.00;61570.13;5007165;28;19913;-55
2022/07/07 08:29:21;;;;;;;;;;;;;;;-147.11;100.00;61570.13;5002613;28;19917;-55
2022/07/07 08:31:46;;;;;;;;;;;;;;;-147.11;100.00;61570.13;5010395;28;19971;-55
2022/07/07 08:34:11;;;;;;;;;;;;;;;-147.11;100.00;61570.13;5016067;28;20373;-55
2022/07/07 08:36:36;;;;;;;;;;;;;;;-147.11;100.00;61570.13;5010318;28;19918;-55
2022/07/07 08:39:02;;;;;;;;;;;;;;;-147.11;100.00;61570.13;5016097;28;19913;-54
2022/07/07 08:41:27;;;;;;;;;;;;;;;-147.11;100.00;61570.13;5007080;28;19913;-56
2022/07/07 08:43:55;;;;;;;;;;;;;;;-147.11;100.00;61570.13;5010215;28;19925;-53
2022/07/07 08:46:20;;;;;;;;;;;;;;;-147.11;100.00;61570.13;5007109;28;19920;-54
2022/07/07 08:48:46;;;;;;;;;;;;;;;-147.11;100.00;61570.13;5009645;28;19917;-52
2022/07/07 08:51:11;;;;;;;;;;;;;;;-147.11;100.00;61570.13;5010674;28;19914;-52
2022/07/07 08:53:37;;;;;;;;;;;;;;;-147.11;100.00;61570.13;5015142;28;19918;-52
2022/07/07 08:56:03;;;;;;;;;;;;;;;-147.11;100.00;61570.13;5010239;28;20003;-55
2022/07/07 08:58:29;;;;;;;;;;;;;;;-147.11;100.00;61570.13;5010275;28;19949;-52
2022/07/07 09:00:55;;;;;;;;;;;;;;;-147.11;100.00;61570.13;4999498;28;20009;-55
2022/07/07 09:03:20;;;;;;;;;;;;;;;-147.11;100.00;61570.13;5001124;28;20388;-53
2022/07/07 09:05:46;;;;;;;;;;;;;;;-147.11;100.00;61570.13;5008844;28;19925;-53
2022/07/07 09:08:16;;;;;;;;;;;;;;;-147.11;100.00;61570.13;5007183;28;20068;-52
2022/07/07 09:10:42;;;;;;;;;;;;;;;-147.11;100.00;61570.13;5008232;28;20343;-55
2022/07/07 09:13:25;;;;;;;;;;;;;;;-147.11;100.00;61570.13;5011544;28;19920;-54
2022/07/07 09:15:51;;;;;;;;;;;;;;;-147.11;100.00;61570.13;5010398;28;19913;-58
2022/07/07 09:18:28;;;;;;;;;;;;;;;-147.11;100.00;61570.13;5011064;28;19909;-53
2022/07/07 09:20:54;;;;;;;;;;;;;;;-147.11;100.00;61570.13;4989574;28;19921;-52
2022/07/07 09:23:19;;;;;;;;;;;;;;;-147.11;100.00;61570.13;5001660;28;20063;-53
2022/07/07 09:25:45;;;;;;;;;;;;;;;-147.11;100.00;61570.13;5014042;28;19921;-53
2022/07/07 09:28:10;;;;;;;;;;;;;;;-147.11;100.00;61570.13;4990990;28;20301;-56
2022/07/07 09:30:37;;;;;;;;;;;;;;;-147.11;100.00;61570.13;4998557;28;19917;-55
2022/07/07 09:33:07;;;;;;;;;;;;;;;-147.11;100.00;61570.13;5008564;28;20011;-54
2022/07/07 09:38:18;;;;;;;;;;;;;;;-147.11;100.00;61570.13;5001995;28;21227;-53
2022/07/07 09:40:59;;;;;;;;;;;;;;;-147.11;100.00;61570.13;5004471;28;19917;-52
2022/07/07 09:43:25;;;;;;;;;;;;;;;-147.11;100.00;61570.13;5007164;28;20341;-52
2022/07/07 09:46:10;;;;;;;;;;;;;;;-147.11;100.00;61570.13;5007892;28;20012;-52
2022/07/07 09:48:36;;;;;;;;;;;;;;;-147.11;100.00;61570.13;5007690;28;19917;-53
2022/07/07 09:51:16;;;;;;;;;;;;;;;-147.11;100.00;61570.13;5002326;28;20253;-52
2022/07/07 09:53:58;;;;;;;;;;;;;;;-147.11;100.00;61570.13;4998881;28;19913;-52
2022/07/07 09:56:25;;;;;;;;;;;;;;;-147.11;100.00;61570.13;5001752;28;19928;-52
2022/07/07 09:58:52;;;;;;;;;;;;;;;-147.11;100.00;61570.13;4990494;28;19945;-55
2022/07/07 10:01:18;;;;;;;;;;;;;;;-147.11;100.00;61570.13;5010882;28;20011;-56
2022/07/07 10:03:43;;;;;;;;;;;;;;;-147.11;100.00;61570.13;5006641;28;20589;-54
2022/07/07 10:06:09;;;;;;;;;;;;;;;-147.11;100.00;61570.13;4990696;28;19921;-55
2022/07/07 10:08:37;;;;;;;;;;;;;;;-147.11;100.00;61570.13;5005915;28;19917;-58
2022/07/07 10:11:04;;;;;;;;;;;;;;;-147.11;100.00;61570.13;5006123;28;19917;-56
2022/07/07 10:13:31;;;;;;;;;;;;;;;-147.11;100.00;61570.13;5010896;28;19921;-55
2022/07/07 10:15:56;;;;;;;;;;;;;;;-147.11;100.00;61570.13;5000815;28;19917;-55
2022/07/07 10:18:22;;;;;;;;;;;;;;;-147.11;100.00;61570.13;5005481;28;20284;-52
2022/07/07 10:20:48;;;;;;;;;;;;;;;-147.11;100.00;61570.13;5011624;28;19909;-54
2022/07/07 10:23:13;;;;;;;;;;;;;;;-147.11;100.00;61570.13;4995462;28;19926;-52
2022/07/07 10:25:38;;;;;;;;;;;;;;;-147.11;100.00;61570.13;4978159;28;19926;-52
2022/07/07 10:28:04;;;;;;;;;;;;;;;-147.11;100.00;61570.13;5015398;28;19912;-52
2022/07/07 10:30:30;;;;;;;;;;;;;;;-147.11;100.00;61570.13;5007905;28;20242;-58
2022/07/07 10:32:56;;;;;;;;;;;;;;;-147.11;100.00;61570.13;5012605;28;19997;-56
2022/07/07 10:35:23;;;;;;;;;;;;;;;-147.11;100.00;61570.13;5010273;28;19913;-57
2022/07/07 10:37:49;;;;;;;;;;;;;;;-147.11;100.00;61570.13;5019732;28;19909;-54
2022/07/07 10:40:20;;;;;;;;;;;;;;;-147.11;100.00;61570.13;5007679;28;19921;-51
2022/07/07 10:43:04;;;;;;;;;;;;;;;-147.11;100.00;61570.13;5004068;28;20391;-55
2022/07/07 10:45:30;;;;;;;;;;;;;;;-147.11;100.00;61570.13;4998947;28;19925;-53
2022/07/07 10:47:56;;;;;;;;;;;;;;;-147.11;100.00;61570.13;5004645;28;19917;-54
2022/07/07 10:50:22;;;;;;;;;;;;;;;-147.11;100.00;61570.13;5010573;28;20004;-57
2022/07/07 10:52:48;;;;;;;;;;;;;;;-147.11;100.00;61570.13;5006533;28;20275;-53
2022/07/07 10:55:13;;;;;;;;;;;;;;;-147.11;100.00;61570.13;5000751;28;19948;-54
2022/07/07 10:57:39;;;;;;;;;;;;;;;-147.11;100.00;61570.13;5010173;28;19956;-54
2022/07/07 11:00:09;;;;;;;;;;;;;;;-147.11;100.00;61570.13;5014540;28;19913;-53
2022/07/07 11:02:34;;;;;;;;;;;;;;;-147.11;100.00;61570.13;5012852;28;19972;-55
2022/07/07 11:05:01;;;;;;;;;;;;;;;-147.11;100.00;61570.13;5015963;28;19961;-55
2022/07/07 11:07:28;;;;;;;;;;;;;;;-147.11;100.00;61570.13;5016026;28;19976;-53
2022/07/07 11:10:00;;;;;;;;;;;;;;;-147.11;100.00;61570.13;5016853;28;19928;-58
2022/07/07 11:12:37;;;;;;;;;;;;;;;-147.11;100.00;61570.13;5014442;28;20013;-55
2022/07/07 11:15:18;;;;;;;;;;;;;;;-147.11;100.00;61570.13;4995443;28;19921;-57
2022/07/07 11:18:10;;;;;;;;;;;;;;;-147.11;100.00;61570.13;5010530;28;19913;-53
2022/07/07 11:20:36;;;;;;;;;;;;;;;-147.11;100.00;61570.13;5009165;28;20438;-55
2022/07/07 11:23:12;;;;;;;;;;;;;;;-147.11;100.00;61570.13;5013513;28;19944;-52
2022/07/07 11:25:38;;;;;;;;;;;;;;;-147.11;100.00;61570.13;5010457;28;19925;-54
2022/07/07 11:28:04;;;;;;;;;;;;;;;-147.11;100.00;61570.13;5014348;28;20367;-55
2022/07/07 11:30:31;;;;;;;;;;;;;;;-147.11;100.00;61570.13;5015156;28;19921;-55
2022/07/07 11:32:58;;;;;;;;;;;;;;;-147.11;100.00;61570.13;5016056;28;20419;-55
2022/07/07 11:35:23;;;;;;;;;;;;;;;-147.11;100.00;61570.13;5016409;28;19932;-55
2022/07/07 11:37:48;;;;;;;;;;;;;;;-147.11;100.00;61570.13;5010748;28;19925;-53
2022/07/07 11:40:14;;;;;;;;;;;;;;;-147.11;100.00;61570.13;5016332;28;19917;-56
2022/07/07 11:42:42;;;;;;;;;;;;;;;-147.11;100.00;61570.13;5008061;28;19921;-56
2022/07/07 11:45:21;;;;;;;;;;;;;;;-147.11;100.00;61570.13;5010603;28;19967;-53
2022/07/07 11:47:47;;;;;;;;;;;;;;;-147.11;100.00;61570.13;5010503;28;19913;-55
2022/07/07 11:50:12;;;;;;;;;;;;;;;-147.11;100.00;61570.13;5012349;28;19913;-52
2022/07/07 11:52:38;;;;;;;;;;;;;;;-147.11;100.00;61570.13;5008777;28;20339;-57
2022/07/07 11:55:04;;;;;;;;;;;;;;;-147.11;100.00;61570.13;5007787;28;19924;-53
2022/07/07 11:57:30;;;;;;;;;;;;;;;-147.11;100.00;61570.13;4986323;28;19921;-57
2022/07/07 12:00:14;;;;;;;;;;;;;;;-147.11;100.00;61570.13;4985196;28;21796;-51
2022/07/07 12:02:40;;;;;;;;;;;;;;;-147.11;100.00;61570.13;4985946;28;19925;-55
2022/07/07 12:05:06;;;;;;;;;;;;;;;-147.11;100.00;61570.13;4993795;28;19921;-51
2022/07/07 12:07:31;;;;;;;;;;;;;;;-147.11;100.00;61570.13;5010358;28;20376;-52
2022/07/07 12:09:57;;;;;;;;;;;;;;;-147.11;100.00;61570.13;5007224;28;19963;-53
2022/07/07 12:12:22;;;;;;;;;;;;;;;-147.11;100.00;61570.13;5012372;28;20011;-54
2022/07/07 12:14:48;;;;;;;;;;;;;;;-147.11;100.00;61570.13;5003879;28;19917;-53
2022/07/07 12:17:13;;;;;;;;;;;;;;;-147.11;100.00;61570.13;5009073;28;19971;-55
2022/07/07 12:19:49;;;;;;;;;;;;;;;-147.11;100.00;61570.13;4997280;28;19987;-54